Fall Creek, Wisconsin
Current Conditions -  °F | °C
As of 5:56 PM on Wednesday 28 Jan 2015 (Local Time) from KEAU Reporting Station
Broken Clouds Broken Clouds  
Wind Chill: 21°   Ceiling: 3100
Heat Index: 29°   Visibility: 7mi
Dew Point: 23°   Wind: 8mph
Humidity: 78%   Direction: 130°SE
Pressure: 29.83"   Gusts: NA
Location:  44.76°N, 91.28°W
Report Text: KEAU 282356Z 13007KT 7SM BKN031 M02/M05 A2983 RMK AO2 SLP113 T10171050 11011 21022 55009
Loading
Personal Weather Stations






























Interactive Weather Map New forecast layout! Learn more

10-Day Weather Forecast

Advertisements
Track Severe Weather on mobile